sensor_id;sensor_type;location;lat;lon;timestamp;pressure;altitude;pressure_sealevel;temperature;humidity
60307;BME280;46155;52.364;6.580;2023-02-15T04:01:39;102503.44;;;0.90;100.00
60307;BME280;46155;52.364;6.580;2023-02-15T04:04:33;102506.75;;;0.89;100.00
60307;BME280;46155;52.364;6.580;2023-02-15T04:06:59;102504.94;;;0.88;100.00
60307;BME280;46155;52.364;6.580;2023-02-15T04:09:25;102496.59;;;0.91;100.00
60307;BME280;46155;52.364;6.580;2023-02-15T04:12:09;102503.78;;;0.86;100.00
60307;BME280;46155;52.364;6.580;2023-02-15T04:14:34;102507.31;;;0.87;100.00
60307;BME280;46155;52.364;6.580;2023-02-15T04:17:18;102503.78;;;0.86;100.00
60307;BME280;46155;52.364;6.580;2023-02-15T04:19:43;102497.50;;;0.84;100.00
60307;BME280;46155;52.364;6.580;2023-02-15T04:22:27;102497.16;;;0.88;100.00
60307;BME280;46155;52.364;6.580;2023-02-15T04:25:11;102500.13;;;0.91;100.00
60307;BME280;46155;52.364;6.580;2023-02-15T04:27:44;102496.06;;;0.93;100.00
60307;BME280;46155;52.364;6.580;2023-02-15T04:30:12;102490.91;;;0.93;100.00
60307;BME280;46155;52.364;6.580;2023-02-15T04:32:37;102482.38;;;0.87;100.00
60307;BME280;46155;52.364;6.580;2023-02-15T04:35:05;102487.16;;;0.84;100.00
60307;BME280;46155;52.364;6.580;2023-02-15T04:37:31;102493.69;;;0.95;100.00
60307;BME280;46155;52.364;6.580;2023-02-15T04:39:56;102496.69;;;0.98;100.00
60307;BME280;46155;52.364;6.580;2023-02-15T04:42:24;102493.34;;;0.99;100.00
60307;BME280;46155;52.364;6.580;2023-02-15T04:44:50;102494.81;;;0.97;100.00
60307;BME280;46155;52.364;6.580;2023-02-15T04:47:15;102498.31;;;0.97;100.00
60307;BME280;46155;52.364;6.580;2023-02-15T04:49:41;102494.28;;;0.99;100.00
60307;BME280;46155;52.364;6.580;2023-02-15T04:52:06;102497.25;;;1.02;100.00
60307;BME280;46155;52.364;6.580;2023-02-15T04:54:31;102489.50;;;1.02;100.00
60307;BME280;46155;52.364;6.580;2023-02-15T04:56:57;102491.34;;;1.03;100.00
60307;BME280;46155;52.364;6.580;2023-02-15T04:59:22;102479.88;;;1.01;100.00
60307;BME280;46155;52.364;6.580;2023-02-15T05:01:47;102472.09;;;1.01;100.00
60307;BME280;46155;52.364;6.580;2023-02-15T05:04:13;102472.81;;;1.00;100.00
60307;BME280;46155;52.364;6.580;2023-02-15T05:06:38;102475.03;;;0.97;100.00
60307;BME280;46155;52.364;6.580;2023-02-15T05:09:03;102476.91;;;0.98;100.00
60307;BME280;46155;52.364;6.580;2023-02-15T05:11:28;102475.97;;;0.98;100.00
60307;BME280;46155;52.364;6.580;2023-02-15T05:13:54;102481.16;;;0.98;100.00
60307;BME280;46155;52.364;6.580;2023-02-15T05:16:19;102475.41;;;1.00;100.00
60307;BME280;46155;52.364;6.580;2023-02-15T05:18:44;102473.19;;;0.96;100.00
60307;BME280;46155;52.364;6.580;2023-02-15T05:21:10;102468.16;;;0.91;100.00
60307;BME280;46155;52.364;6.580;2023-02-15T05:23:36;102442.81;;;1.23;100.00
60307;BME280;46155;52.364;6.580;2023-02-15T05:26:01;102456.44;;;1.56;100.00
60307;BME280;46155;52.364;6.580;2023-02-15T05:28:45;102454.03;;;1.58;100.00
60307;BME280;46155;52.364;6.580;2023-02-15T05:31:13;102455.13;;;1.60;100.00
60307;BME280;46155;52.364;6.580;2023-02-15T05:33:39;102457.16;;;1.55;100.00
60307;BME280;46155;52.364;6.580;2023-02-15T05:36:06;102463.06;;;1.54;100.00
60307;BME280;46155;52.364;6.580;2023-02-15T05:38:31;102462.88;;;1.52;100.00
60307;BME280;46155;52.364;6.580;2023-02-15T05:40:57;102455.25;;;1.40;100.00
60307;BME280;46155;52.364;6.580;2023-02-15T05:43:22;102461.53;;;1.42;100.00
60307;BME280;46155;52.364;6.580;2023-02-15T05:45:49;102443.97;;;1.32;100.00
60307;BME280;46155;52.364;6.580;2023-02-15T05:48:16;102452.84;;;1.34;100.00
60307;BME280;46155;52.364;6.580;2023-02-15T05:50:41;102446.34;;;1.30;100.00
60307;BME280;46155;52.364;6.580;2023-02-15T05:53:07;102454.09;;;1.30;100.00
60307;BME280;46155;52.364;6.580;2023-02-15T05:55:32;102449.69;;;1.29;100.00
60307;BME280;46155;52.364;6.580;2023-02-15T05:57:58;102451.34;;;1.36;100.00
60307;BME280;46155;52.364;6.580;2023-02-15T06:00:23;102448.84;;;1.58;100.00
60307;BME280;46155;52.364;6.580;2023-02-15T06:02:48;102451.63;;;1.52;100.00
60307;BME280;46155;52.364;6.580;2023-02-15T06:05:14;102453.41;;;1.46;100.00
60307;BME280;46155;52.364;6.580;2023-02-15T06:07:43;102441.16;;;1.30;100.00
60307;BME280;46155;52.364;6.580;2023-02-15T06:10:08;102450.06;;;1.32;100.00
60307;BME280;46155;52.364;6.580;2023-02-15T06:12:34;102443.19;;;1.26;100.00
60307;BME280;46155;52.364;6.580;2023-02-15T06:14:59;102449.31;;;1.26;100.00
60307;BME280;46155;52.364;6.580;2023-02-15T06:17:24;102448.53;;;1.20;100.00
60307;BME280;46155;52.364;6.580;2023-02-15T06:19:50;102443.38;;;1.20;100.00
60307;BME280;46155;52.364;6.580;2023-02-15T06:22:15;102451.31;;;1.22;100.00
60307;BME280;46155;52.364;6.580;2023-02-15T06:24:40;102454.28;;;1.25;100.00
60307;BME280;46155;52.364;6.580;2023-02-15T06:27:08;102451.69;;;1.25;100.00
60307;BME280;46155;52.364;6.580;2023-02-15T06:29:34;102455.56;;;1.21;100.00
60307;BME280;46155;52.364;6.580;2023-02-15T06:31:59;102444.84;;;1.18;100.00
60307;BME280;46155;52.364;6.580;2023-02-15T06:34:25;102446.28;;;1.16;100.00
60307;BME280;46155;52.364;6.580;2023-02-15T06:36:50;102442.78;;;1.15;100.00
60307;BME280;46155;52.364;6.580;2023-02-15T06:39:15;102450.03;;;1.18;100.00
60307;BME280;46155;52.364;6.580;2023-02-15T06:41:41;102452.97;;;1.21;100.00
60307;BME280;46155;52.364;6.580;2023-02-15T06:44:06;102437.63;;;1.15;100.00
60307;BME280;46155;52.364;6.580;2023-02-15T06:46:32;102444.09;;;1.19;100.00
60307;BME280;46155;52.364;6.580;2023-02-15T06:48:57;102450.78;;;1.24;100.00
60307;BME280;46155;52.364;6.580;2023-02-15T06:51:22;102450.41;;;1.21;100.00
60307;BME280;46155;52.364;6.580;2023-02-15T06:53:48;102444.31;;;1.20;100.00
60307;BME280;46155;52.364;6.580;2023-02-15T06:56:13;102447.09;;;1.22;100.00
60307;BME280;46155;52.364;6.580;2023-02-15T06:58:39;102443.03;;;1.31;100.00
60307;BME280;46155;52.364;6.580;2023-02-15T07:01:05;102440.06;;;1.28;100.00
60307;BME280;46155;52.364;6.580;2023-02-15T07:03:31;102447.84;;;1.28;100.00
60307;BME280;46155;52.364;6.580;2023-02-15T07:05:58;102450.22;;;1.27;100.00
60307;BME280;46155;52.364;6.580;2023-02-15T07:08:25;102441.34;;;1.25;100.00
60307;BME280;46155;52.364;6.580;2023-02-15T07:10:51;102446.13;;;1.22;100.00
60307;BME280;46155;52.364;6.580;2023-02-15T07:13:17;102439.50;;;1.24;100.00
60307;BME280;46155;52.364;6.580;2023-02-15T07:15:43;102425.09;;;1.26;100.00
60307;BME280;46155;52.364;6.580;2023-02-15T07:18:09;102438.97;;;1.26;100.00
60307;BME280;46155;52.364;6.580;2023-02-15T07:20:36;102427.66;;;1.26;100.00
60307;BME280;46155;52.364;6.580;2023-02-15T07:23:02;102435.81;;;1.29;100.00
60307;BME280;46155;52.364;6.580;2023-02-15T07:25:27;102428.22;;;1.30;100.00
60307;BME280;46155;52.364;6.580;2023-02-15T07:28:03;102428.34;;;1.66;100.00
60307;BME280;46155;52.364;6.580;2023-02-15T07:30:29;102428.31;;;1.59;100.00
60307;BME280;46155;52.364;6.580;2023-02-15T07:32:56;102427.75;;;1.54;100.00
60307;BME280;46155;52.364;6.580;2023-02-15T07:35:49;102436.47;;;1.62;100.00
60307;BME280;46155;52.364;6.580;2023-02-15T07:38:15;102436.28;;;1.68;100.00
60307;BME280;46155;52.364;6.580;2023-02-15T07:40:40;102433.53;;;1.74;100.00
60307;BME280;46155;52.364;6.580;2023-02-15T07:43:06;102428.00;;;1.78;100.00
60307;BME280;46155;52.364;6.580;2023-02-15T07:45:31;102419.50;;;1.79;100.00
60307;BME280;46155;52.364;6.580;2023-02-15T07:47:56;102416.91;;;1.86;100.00
60307;BME280;46155;52.364;6.580;2023-02-15T07:50:22;102404.69;;;1.92;100.00
60307;BME280;46155;52.364;6.580;2023-02-15T07:52:47;102398.75;;;2.00;100.00
60307;BME280;46155;52.364;6.580;2023-02-15T07:55:12;102407.63;;;2.17;100.00
60307;BME280;46155;52.364;6.580;2023-02-15T07:57:49;102394.28;;;2.28;100.00
60307;BME280;46155;52.364;6.580;2023-02-15T08:00:16;102396.28;;;2.45;100.00
60307;BME280;46155;52.364;6.580;2023-02-15T08:02:47;102377.59;;;2.48;100.00
60307;BME280;46155;52.364;6.580;2023-02-15T08:05:12;102384.94;;;2.66;100.00
60307;BME280;46155;52.364;6.580;2023-02-15T08:07:37;102383.44;;;2.75;100.00
60307;BME280;46155;52.364;6.580;2023-02-15T08:10:03;102385.25;;;2.91;100.00
60307;BME280;46155;52.364;6.580;2023-02-15T08:12:29;102383.88;;;3.02;100.00
60307;BME280;46155;52.364;6.580;2023-02-15T08:14:54;102372.19;;;3.05;100.00
60307;BME280;46155;52.364;6.580;2023-02-15T08:17:19;102376.59;;;3.14;100.00
60307;BME280;46155;52.364;6.580;2023-02-15T08:19:45;102382.84;;;3.23;100.00
60307;BME280;46155;52.364;6.580;2023-02-15T08:22:13;102380.94;;;3.36;100.00
60307;BME280;46155;52.364;6.580;2023-02-15T08:24:39;102378.63;;;3.47;100.00
60307;BME280;46155;52.364;6.580;2023-02-15T08:27:06;102370.97;;;3.55;100.00
60307;BME280;46155;52.364;6.580;2023-02-15T08:29:33;102387.56;;;3.72;100.00
60307;BME280;46155;52.364;6.580;2023-02-15T08:32:02;102378.78;;;3.78;100.00
60307;BME280;46155;52.364;6.580;2023-02-15T08:34:34;102374.94;;;3.91;100.00
60307;BME280;46155;52.364;6.580;2023-02-15T08:37:00;102381.53;;;4.03;100.00
60307;BME280;46155;52.364;6.580;2023-02-15T08:39:26;102387.16;;;4.15;100.00
60307;BME280;46155;52.364;6.580;2023-02-15T08:41:51;102385.22;;;4.28;100.00
60307;BME280;46155;52.364;6.580;2023-02-15T08:44:18;102384.16;;;4.42;100.00
60307;BME280;46155;52.364;6.580;2023-02-15T08:46:46;102381.78;;;4.53;100.00
60307;BME280;46155;52.364;6.580;2023-02-15T08:49:15;102381.38;;;4.57;100.00
60307;BME280;46155;52.364;6.580;2023-02-15T08:51:42;102374.66;;;4.59;100.00
60307;BME280;46155;52.364;6.580;2023-02-15T08:54:11;102376.50;;;4.76;100.00
60307;BME280;46155;52.364;6.580;2023-02-15T08:56:38;102379.28;;;4.77;100.00
60307;BME280;46155;52.364;6.580;2023-02-15T08:59:05;102362.16;;;4.79;100.00
60307;BME280;46155;52.364;6.580;2023-02-15T09:01:32;102373.97;;;5.00;100.00
60307;BME280;46155;52.364;6.580;2023-02-15T09:04:00;102364.53;;;5.10;100.00
60307;BME280;46155;52.364;6.580;2023-02-15T09:06:27;102357.47;;;5.09;100.00
60307;BME280;46155;52.364;6.580;2023-02-15T09:08:53;102365.81;;;5.13;100.00
60307;BME280;46155;52.364;6.580;2023-02-15T09:11:24;102360.50;;;5.21;100.00
60307;BME280;46155;52.364;6.580;2023-02-15T09:14:07;102362.91;;;5.35;100.00
60307;BME280;46155;52.364;6.580;2023-02-15T09:16:34;102354.06;;;5.42;100.00
60307;BME280;46155;52.364;6.580;2023-02-15T09:19:00;102366.69;;;5.55;100.00
60307;BME280;46155;52.364;6.580;2023-02-15T09:21:33;102354.78;;;5.65;100.00
60307;BME280;46155;52.364;6.580;2023-02-15T09:24:05;102359.72;;;5.71;100.00
60307;BME280;46155;52.364;6.580;2023-02-15T09:26:32;102347.19;;;5.76;99.71
60307;BME280;46155;52.364;6.580;2023-02-15T09:29:00;102354.31;;;5.85;99.89
60307;BME280;46155;52.364;6.580;2023-02-15T09:31:49;102357.69;;;5.93;99.04
60307;BME280;46155;52.364;6.580;2023-02-15T09:34:17;102354.69;;;5.97;99.45
60307;BME280;46155;52.364;6.580;2023-02-15T09:36:44;102348.16;;;6.10;98.91
60307;BME280;46155;52.364;6.580;2023-02-15T09:39:18;102352.50;;;6.27;99.16
60307;BME280;46155;52.364;6.580;2023-02-15T09:51:15;102350.28;;;6.74;95.07
60307;BME280;46155;52.364;6.580;2023-02-15T09:56:25;102353.19;;;6.85;95.25
60307;BME280;46155;52.364;6.580;2023-02-15T10:26:43;102332.69;;;7.51;91.24
60307;BME280;46155;52.364;6.580;2023-02-15T10:31:55;102331.13;;;7.53;92.15
60307;BME280;46155;52.364;6.580;2023-02-15T10:34:37;102330.06;;;7.51;91.23
60307;BME280;46155;52.364;6.580;2023-02-15T10:45:10;102333.56;;;7.97;90.41
60307;BME280;46155;52.364;6.580;2023-02-15T10:50:36;102338.09;;;8.17;88.52
60307;BME280;46155;52.364;6.580;2023-02-15T10:53:20;102330.47;;;8.29;87.30
60307;BME280;46155;52.364;6.580;2023-02-15T10:58:29;102333.16;;;8.48;88.25
60307;BME280;46155;52.364;6.580;2023-02-15T11:01:26;102322.34;;;8.54;86.46
60307;BME280;46155;52.364;6.580;2023-02-15T11:07:23;102322.56;;;8.66;85.89
60307;BME280;46155;52.364;6.580;2023-02-15T11:09:53;102323.78;;;8.69;85.00
60307;BME280;46155;52.364;6.580;2023-02-15T11:12:24;102317.75;;;8.70;85.92
60307;BME280;46155;52.364;6.580;2023-02-15T11:15:14;102323.06;;;8.81;86.05
60307;BME280;46155;52.364;6.580;2023-02-15T11:17:46;102308.81;;;8.87;84.73
60307;BME280;46155;52.364;6.580;2023-02-15T11:20:23;102313.66;;;9.02;83.18
60307;BME280;46155;52.364;6.580;2023-02-15T11:22:51;102315.78;;;9.06;82.82
60307;BME280;46155;52.364;6.580;2023-02-15T11:25:30;102318.94;;;9.12;84.06
60307;BME280;46155;52.364;6.580;2023-02-15T11:27:56;102315.59;;;9.23;83.71
60307;BME280;46155;52.364;6.580;2023-02-15T11:30:28;102311.97;;;9.32;82.47
60307;BME280;46155;52.364;6.580;2023-02-15T11:33:00;102310.16;;;9.41;83.07
60307;BME280;46155;52.364;6.580;2023-02-15T11:35:43;102292.88;;;9.43;81.31
60307;BME280;46155;52.364;6.580;2023-02-15T11:38:32;102276.22;;;9.42;82.35
60307;BME280;46155;52.364;6.580;2023-02-15T11:41:14;102292.41;;;9.68;82.66
60307;BME280;46155;52.364;6.580;2023-02-15T11:43:48;102277.78;;;9.80;81.55
60307;BME280;46155;52.364;6.580;2023-02-15T11:46:15;102284.09;;;9.92;80.88
60307;BME280;46155;52.364;6.580;2023-02-15T11:48:40;102278.22;;;10.05;80.71
60307;BME280;46155;52.364;6.580;2023-02-15T11:51:21;102278.59;;;10.10;79.56
60307;BME280;46155;52.364;6.580;2023-02-15T11:53:48;102272.28;;;10.08;79.90
60307;BME280;46155;52.364;6.580;2023-02-15T11:56:19;102272.81;;;10.14;79.50
60307;BME280;46155;52.364;6.580;2023-02-15T11:58:55;102274.25;;;10.10;79.44
60307;BME280;46155;52.364;6.580;2023-02-15T12:01:30;102272.97;;;10.05;78.89
60307;BME280;46155;52.364;6.580;2023-02-15T12:04:10;102260.22;;;10.10;79.32
60307;BME280;46155;52.364;6.580;2023-02-15T12:06:49;102261.69;;;10.16;78.57
60307;BME280;46155;52.364;6.580;2023-02-15T12:09:36;102258.38;;;10.29;79.35
60307;BME280;46155;52.364;6.580;2023-02-15T12:12:25;102260.63;;;10.45;78.54
60307;BME280;46155;52.364;6.580;2023-02-15T12:14:58;102251.56;;;10.52;77.70
60307;BME280;46155;52.364;6.580;2023-02-15T12:17:26;102253.41;;;10.63;77.30
60307;BME280;46155;52.364;6.580;2023-02-15T12:19:55;102253.78;;;10.68;78.27
60307;BME280;46155;52.364;6.580;2023-02-15T12:22:24;102249.69;;;10.72;77.78
60307;BME280;46155;52.364;6.580;2023-02-15T12:24:52;102250.88;;;10.75;76.43
60307;BME280;46155;52.364;6.580;2023-02-15T12:27:21;102241.25;;;10.76;76.30
60307;BME280;46155;52.364;6.580;2023-02-15T12:29:55;102242.19;;;10.76;76.13
60307;BME280;46155;52.364;6.580;2023-02-15T12:32:54;102240.25;;;10.63;75.69
60307;BME280;46155;52.364;6.580;2023-02-15T12:35:27;102234.72;;;10.60;75.86
60307;BME280;46155;52.364;6.580;2023-02-15T12:37:55;102230.94;;;10.57;76.88
60307;BME280;46155;52.364;6.580;2023-02-15T12:40:25;102231.19;;;10.60;77.87
60307;BME280;46155;52.364;6.580;2023-02-15T12:42:52;102230.53;;;10.62;76.13
60307;BME280;46155;52.364;6.580;2023-02-15T12:45:32;102227.38;;;10.66;76.12
60307;BME280;46155;52.364;6.580;2023-02-15T12:48:14;102221.06;;;10.75;75.13
60307;BME280;46155;52.364;6.580;2023-02-15T12:50:50;102218.81;;;10.79;74.81
60307;BME280;46155;52.364;6.580;2023-02-15T12:55:55;102214.56;;;10.92;73.43
60307;BME280;46155;52.364;6.580;2023-02-15T12:58:23;102212.34;;;10.86;73.23
60307;BME280;46155;52.364;6.580;2023-02-15T13:03:34;102198.69;;;10.80;72.40
60307;BME280;46155;52.364;6.580;2023-02-15T13:06:02;102197.91;;;10.81;73.19
60307;BME280;46155;52.364;6.580;2023-02-15T13:08:34;102193.69;;;10.83;73.71
60307;BME280;46155;52.364;6.580;2023-02-15T13:11:10;102185.81;;;10.83;72.20
60307;BME280;46155;52.364;6.580;2023-02-15T13:13:50;102180.44;;;10.81;71.90
60307;BME280;46155;52.364;6.580;2023-02-15T13:16:21;102181.13;;;10.79;72.50
60307;BME280;46155;52.364;6.580;2023-02-15T13:18:51;102178.09;;;10.84;73.28
60307;BME280;46155;52.364;6.580;2023-02-15T13:21:34;102170.88;;;10.82;71.98
60307;BME280;46155;52.364;6.580;2023-02-15T13:24:05;102167.56;;;10.84;72.43
60307;BME280;46155;52.364;6.580;2023-02-15T13:26:32;102165.06;;;10.86;73.05
60307;BME280;46155;52.364;6.580;2023-02-15T13:29:10;102166.63;;;10.84;72.58
60307;BME280;46155;52.364;6.580;2023-02-15T13:31:38;102162.44;;;10.86;73.56
60307;BME280;46155;52.364;6.580;2023-02-15T13:34:30;102167.63;;;10.96;72.92
60307;BME280;46155;52.364;6.580;2023-02-15T13:39:59;102169.19;;;11.05;74.32
60307;BME280;46155;52.364;6.580;2023-02-15T13:42:37;102165.75;;;11.06;74.05
60307;BME280;46155;52.364;6.580;2023-02-15T13:48:36;102150.38;;;11.00;73.80
60307;BME280;46155;52.364;6.580;2023-02-15T14:01:46;102129.38;;;10.78;74.16
60307;BME280;46155;52.364;6.580;2023-02-15T14:17:59;102105.59;;;10.44;76.12
60307;BME280;46155;52.364;6.580;2023-02-15T14:20:55;102115.44;;;10.46;77.01
60307;BME280;46155;52.364;6.580;2023-02-15T14:32:35;102110.63;;;10.41;78.77
60307;BME280;46155;52.364;6.580;2023-02-15T14:35:13;102111.94;;;10.36;79.12
60307;BME280;46155;52.364;6.580;2023-02-15T14:38:14;102104.28;;;10.49;80.60
60307;BME280;46155;52.364;6.580;2023-02-15T14:41:04;102110.91;;;10.88;78.15
60307;BME280;46155;52.364;6.580;2023-02-15T14:46:34;102114.19;;;10.63;77.68
60307;BME280;46155;52.364;6.580;2023-02-15T14:49:22;102120.28;;;10.52;78.08
60307;BME280;46155;52.364;6.580;2023-02-15T14:56:43;102106.03;;;10.38;78.40
60307;BME280;46155;52.364;6.580;2023-02-15T14:59:22;102108.78;;;10.40;79.32
60307;BME280;46155;52.364;6.580;2023-02-15T15:01:56;102109.03;;;10.32;79.39
60307;BME280;46155;52.364;6.580;2023-02-15T15:04:38;102115.72;;;10.29;79.64
60307;BME280;46155;52.364;6.580;2023-02-15T15:07:20;102112.84;;;10.26;80.46
60307;BME280;46155;52.364;6.580;2023-02-15T15:09:58;102109.06;;;10.22;80.18
60307;BME280;46155;52.364;6.580;2023-02-15T15:14:51;102110.63;;;10.20;81.06
60307;BME280;46155;52.364;6.580;2023-02-15T15:22:33;102118.28;;;10.07;83.07
60307;BME280;46155;52.364;6.580;2023-02-15T15:25:00;102114.59;;;10.05;82.14
60307;BME280;46155;52.364;6.580;2023-02-15T15:27:48;102119.59;;;10.02;81.95
60307;BME280;46155;52.364;6.580;2023-02-15T15:32:58;102123.50;;;9.96;82.87
60307;BME280;46155;52.364;6.580;2023-02-15T15:35:37;102111.47;;;9.88;82.53
60307;BME280;46155;52.364;6.580;2023-02-15T15:38:27;102115.16;;;9.80;82.33
60307;BME280;46155;52.364;6.580;2023-02-15T15:41:17;102114.09;;;9.78;83.23
60307;BME280;46155;52.364;6.580;2023-02-15T15:49:07;102104.69;;;9.70;82.56
60307;BME280;46155;52.364;6.580;2023-02-15T15:51:33;102105.19;;;9.65;83.01
60307;BME280;46155;52.364;6.580;2023-02-15T15:54:01;102100.47;;;9.61;83.09
60307;BME280;46155;52.364;6.580;2023-02-15T15:56:30;102107.03;;;9.56;83.43
60307;BME280;46155;52.364;6.580;2023-02-15T15:59:02;102098.78;;;9.52;83.86
60307;BME280;46155;52.364;6.580;2023-02-15T16:01:34;102098.91;;;9.43;83.85
60307;BME280;46155;52.364;6.580;2023-02-15T16:04:01;102099.56;;;9.40;84.34
60307;BME280;46155;52.364;6.580;2023-02-15T16:06:33;102101.78;;;9.36;84.39
60307;BME280;46155;52.364;6.580;2023-02-15T16:09:12;102096.25;;;9.33;84.51
60307;BME280;46155;52.364;6.580;2023-02-15T16:11:38;102094.81;;;9.26;84.90
60307;BME280;46155;52.364;6.580;2023-02-15T16:14:11;102089.97;;;9.20;85.03
60307;BME280;46155;52.364;6.580;2023-02-15T16:16:37;102085.75;;;9.12;85.38
60307;BME280;46155;52.364;6.580;2023-02-15T16:19:03;102091.00;;;9.12;85.68
60307;BME280;46155;52.364;6.580;2023-02-15T16:21:31;102078.66;;;9.01;86.31
60307;BME280;46155;52.364;6.580;2023-02-15T16:24:22;102087.44;;;9.01;86.56
60307;BME280;46155;52.364;6.580;2023-02-15T16:29:34;102079.16;;;8.86;87.06
60307;BME280;46155;52.364;6.580;2023-02-15T16:32:05;102085.31;;;8.87;87.40
60307;BME280;46155;52.364;6.580;2023-02-15T16:34:32;102077.19;;;8.84;87.64
60307;BME280;46155;52.364;6.580;2023-02-15T16:37:33;102083.84;;;8.80;87.93
60307;BME280;46155;52.364;6.580;2023-02-15T16:39:59;102093.28;;;8.78;87.77
60307;BME280;46155;52.364;6.580;2023-02-15T16:42:25;102089.31;;;8.73;88.02
60307;BME280;46155;52.364;6.580;2023-02-15T16:45:19;102094.28;;;8.70;88.01
60307;BME280;46155;52.364;6.580;2023-02-15T16:47:50;102099.00;;;8.64;88.50
60307;BME280;46155;52.364;6.580;2023-02-15T16:50:21;102098.72;;;8.60;88.34
60307;BME280;46155;52.364;6.580;2023-02-15T16:52:47;102081.91;;;8.48;88.91
60307;BME280;46155;52.364;6.580;2023-02-15T16:55:24;102089.00;;;8.49;88.91
60307;BME280;46155;52.364;6.580;2023-02-15T16:57:51;102080.75;;;8.36;89.25
60307;BME280;46155;52.364;6.580;2023-02-15T17:00:26;102088.75;;;8.37;89.50
60307;BME280;46155;52.364;6.580;2023-02-15T17:03:02;102085.72;;;8.33;89.56
60307;BME280;46155;52.364;6.580;2023-02-15T17:05:31;102071.41;;;8.19;89.87
60307;BME280;46155;52.364;6.580;2023-02-15T17:08:05;102091.97;;;8.24;90.19
60307;BME280;46155;52.364;6.580;2023-02-15T17:10:36;102100.56;;;8.23;90.19
60307;BME280;46155;52.364;6.580;2023-02-15T17:13:10;102103.69;;;8.19;90.16
60307;BME280;46155;52.364;6.580;2023-02-15T17:15:39;102101.88;;;8.18;90.74
60307;BME280;46155;52.364;6.580;2023-02-15T17:18:14;102103.41;;;8.16;90.25
60307;BME280;46155;52.364;6.580;2023-02-15T17:20:41;102099.91;;;8.16;90.54
60307;BME280;46155;52.364;6.580;2023-02-15T17:23:21;102101.28;;;8.12;90.45
60307;BME280;46155;52.364;6.580;2023-02-15T17:25:47;102090.56;;;8.09;90.42
60307;BME280;46155;52.364;6.580;2023-02-15T17:28:20;102088.44;;;8.05;90.65
60307;BME280;46155;52.364;6.580;2023-02-15T17:30:49;102094.31;;;8.02;90.37
60307;BME280;46155;52.364;6.580;2023-02-15T17:33:22;102093.13;;;7.99;90.61
60307;BME280;46155;52.364;6.580;2023-02-15T17:38:30;102091.97;;;7.86;91.02
60307;BME280;46155;52.364;6.580;2023-02-15T17:40:56;102090.88;;;7.74;91.33
60307;BME280;46155;52.364;6.580;2023-02-15T17:43:24;102101.16;;;7.72;91.13
60307;BME280;46155;52.364;6.580;2023-02-15T17:45:50;102096.88;;;7.73;91.54
60307;BME280;46155;52.364;6.580;2023-02-15T17:48:36;102099.84;;;7.67;91.63
60307;BME280;46155;52.364;6.580;2023-02-15T17:51:04;102104.63;;;7.63;91.98
60307;BME280;46155;52.364;6.580;2023-02-15T17:53:30;102096.06;;;7.55;91.97
60307;BME280;46155;52.364;6.580;2023-02-15T17:55:56;102095.91;;;7.53;92.32
60307;BME280;46155;52.364;6.580;2023-02-15T17:58:22;102096.53;;;7.51;92.43
60307;BME280;46155;52.364;6.580;2023-02-15T18:00:50;102104.25;;;7.49;92.80
60307;BME280;46155;52.364;6.580;2023-02-15T18:06:23;102103.47;;;7.50;92.75
60307;BME280;46155;52.364;6.580;2023-02-15T18:09:14;102099.66;;;7.47;92.58
60307;BME280;46155;52.364;6.580;2023-02-15T18:11:59;102104.88;;;7.47;92.68
60307;BME280;46155;52.364;6.580;2023-02-15T18:14:25;102110.09;;;7.47;92.54
60307;BME280;46155;52.364;6.580;2023-02-15T18:16:50;102118.06;;;7.48;94.47
60307;BME280;46155;52.364;6.580;2023-02-15T18:19:24;102104.88;;;7.47;92.86
60307;BME280;46155;52.364;6.580;2023-02-15T18:21:50;102123.75;;;7.53;92.59
60307;BME280;46155;52.364;6.580;2023-02-15T18:24:19;102123.31;;;7.48;92.27
60307;BME280;46155;52.364;6.580;2023-02-15T18:26:44;102120.25;;;7.44;92.49
60307;BME280;46155;52.364;6.580;2023-02-15T18:29:10;102123.97;;;7.37;92.78
60307;BME280;46155;52.364;6.580;2023-02-15T18:31:36;102110.06;;;7.28;92.98
60307;BME280;46155;52.364;6.580;2023-02-15T18:34:01;102114.22;;;7.26;93.55
60307;BME280;46155;52.364;6.580;2023-02-15T18:36:31;102117.13;;;7.29;93.25
60307;BME280;46155;52.364;6.580;2023-02-15T18:38:58;102123.13;;;7.28;93.30
60307;BME280;46155;52.364;6.580;2023-02-15T18:41:24;102123.88;;;7.27;93.79
60307;BME280;46155;52.364;6.580;2023-02-15T18:43:50;102139.41;;;7.25;93.49
60307;BME280;46155;52.364;6.580;2023-02-15T18:46:18;102119.63;;;7.18;94.07
60307;BME280;46155;52.364;6.580;2023-02-15T18:48:44;102124.84;;;7.18;93.88
60307;BME280;46155;52.364;6.580;2023-02-15T18:51:18;102133.47;;;7.17;93.75
60307;BME280;46155;52.364;6.580;2023-02-15T18:53:49;102130.53;;;7.14;93.91
60307;BME280;46155;52.364;6.580;2023-02-15T18:56:17;102140.09;;;7.14;93.50
60307;BME280;46155;52.364;6.580;2023-02-15T18:58:44;102126.94;;;7.03;94.19
60307;BME280;46155;52.364;6.580;2023-02-15T19:01:17;102129.41;;;7.02;94.05
60307;BME280;46155;52.364;6.580;2023-02-15T19:03:47;102120.94;;;6.96;93.42
60307;BME280;46155;52.364;6.580;2023-02-15T19:06:18;102139.22;;;6.96;94.38
60307;BME280;46155;52.364;6.580;2023-02-15T19:08:46;102113.78;;;6.84;95.39
60307;BME280;46155;52.364;6.580;2023-02-15T19:11:15;102127.28;;;6.89;95.19
60307;BME280;46155;52.364;6.580;2023-02-15T19:13:43;102133.56;;;6.91;96.28
60307;BME280;46155;52.364;6.580;2023-02-15T19:16:29;102126.06;;;6.85;95.69
60307;BME280;46155;52.364;6.580;2023-02-15T19:18:54;102119.00;;;6.84;95.88
60307;BME280;46155;52.364;6.580;2023-02-15T19:21:20;102127.13;;;6.87;95.84
60307;BME280;46155;52.364;6.580;2023-02-15T19:23:51;102124.22;;;6.84;95.95
60307;BME280;46155;52.364;6.580;2023-02-15T19:26:17;102115.03;;;6.79;96.38
60307;BME280;46155;52.364;6.580;2023-02-15T19:28:43;102127.28;;;6.80;96.33
60307;BME280;46155;52.364;6.580;2023-02-15T19:31:12;102124.56;;;6.70;96.57